createdAt,value
2022-11-05T00:00:33.448Z,9.41
2022-11-05T00:01:54.826Z,9.13
2022-11-05T00:03:16.180Z,9.53
2022-11-05T00:04:37.494Z,9.62
2022-11-05T00:06:01.046Z,9.91
2022-11-05T00:07:31.744Z,9.95
2022-11-05T00:08:52.754Z,9.36
2022-11-05T00:10:22.801Z,9.10
2022-11-05T00:11:43.727Z,9.79
2022-11-05T00:13:06.917Z,9.27
2022-11-05T00:15:49.042Z,8.79
2022-11-05T00:17:10.503Z,9.31
2022-11-05T00:18:32.034Z,8.58
2022-11-05T00:19:53.389Z,9.44
2022-11-05T00:21:14.476Z,8.83
2022-11-05T00:22:35.924Z,9.24
2022-11-05T00:23:56.940Z,9.49
2022-11-05T00:25:18.208Z,9.45
2022-11-05T00:26:39.813Z,9.19
2022-11-05T00:28:01.478Z,8.74
2022-11-05T00:29:22.494Z,9.55
2022-11-05T00:30:43.773Z,9.10
2022-11-05T00:32:04.985Z,9.56
2022-11-05T00:33:26.526Z,9.73
2022-11-05T00:34:47.468Z,9.23
2022-11-05T00:36:09.260Z,9.13
2022-11-05T00:37:30.634Z,8.83
2022-11-05T00:38:52.248Z,8.82
2022-11-05T00:40:13.735Z,8.90
2022-11-05T00:41:34.669Z,9.96
2022-11-05T00:42:56.179Z,9.06
2022-11-05T00:44:17.427Z,9.49
2022-11-05T00:45:39.020Z,9.31
2022-11-05T00:47:00.498Z,8.81
2022-11-05T00:48:21.778Z,9.86
2022-11-05T00:49:43.220Z,9.04
2022-11-05T00:51:05.052Z,9.28
2022-11-05T00:52:26.076Z,8.91
2022-11-05T00:53:47.088Z,9.51
2022-11-05T00:55:08.549Z,9.02
2022-11-05T00:56:30.047Z,9.51
2022-11-05T00:57:51.448Z,9.95
2022-11-05T00:59:12.787Z,8.97
2022-11-05T01:00:41.848Z,9.26
2022-11-05T01:02:03.217Z,8.93
2022-11-05T01:03:26.517Z,9.70
2022-11-05T01:06:13.343Z,8.63
2022-11-05T01:07:34.275Z,9.06
2022-11-05T01:08:55.668Z,9.11
2022-11-05T01:10:17.243Z,9.37
2022-11-05T01:11:38.227Z,9.23
2022-11-05T01:12:59.781Z,8.61
2022-11-05T01:14:21.233Z,8.65
2022-11-05T01:15:42.121Z,9.64
2022-11-05T01:17:03.531Z,9.58
2022-11-05T01:18:24.882Z,9.50
2022-11-05T01:19:46.417Z,9.51
2022-11-05T01:21:11.866Z,9.27
2022-11-05T01:22:32.866Z,9.35
2022-11-05T01:23:53.919Z,9.47
2022-11-05T01:25:15.273Z,8.96
2022-11-05T01:26:36.339Z,10.02
2022-11-05T01:27:57.725Z,9.22
2022-11-05T01:29:18.823Z,8.36
2022-11-05T01:30:40.113Z,9.27
2022-11-05T01:32:01.384Z,8.38
2022-11-05T01:33:23.214Z,9.61
2022-11-05T01:34:44.179Z,8.94
2022-11-05T01:36:06.107Z,9.28
2022-11-05T01:37:27.761Z,9.54
2022-11-05T01:38:49.009Z,8.89
2022-11-05T01:40:12.054Z,8.56
2022-11-05T01:41:33.136Z,8.99
2022-11-05T01:42:54.041Z,8.97
2022-11-05T01:44:52.610Z,9.00
2022-11-05T01:46:14.211Z,8.63
2022-11-05T01:48:00.200Z,8.63
2022-11-05T01:49:27.564Z,9.66
2022-11-05T01:50:59.893Z,9.26
2022-11-05T01:52:21.156Z,8.96
2022-11-05T01:55:05.233Z,8.88
2022-11-05T01:56:33.438Z,8.64
2022-11-05T01:57:54.905Z,9.06
2022-11-05T01:59:19.808Z,9.04
2022-11-05T02:00:41.041Z,8.79
2022-11-05T02:02:02.601Z,9.08
2022-11-05T02:03:24.038Z,9.06
2022-11-05T02:04:47.764Z,8.48
2022-11-05T02:06:09.603Z,8.75
2022-11-05T02:07:30.731Z,8.36
2022-11-05T02:09:04.040Z,8.99
2022-11-05T02:10:25.218Z,8.82
2022-11-05T02:11:46.868Z,8.64
2022-11-05T02:13:08.516Z,9.31
2022-11-05T02:14:30.092Z,9.09
2022-11-05T02:16:03.953Z,8.60
2022-11-05T02:19:27.915Z,8.68
2022-11-05T02:22:23.314Z,9.03
2022-11-05T02:25:10.613Z,10.48
2022-11-05T02:26:51.276Z,10.07
2022-11-05T02:29:33.292Z,9.57
2022-11-05T02:31:07.596Z,9.82
2022-11-05T02:32:48.840Z,8.95
2022-11-05T02:35:53.089Z,9.11
2022-11-05T02:38:48.935Z,8.91
2022-11-05T02:40:25.318Z,8.49
2022-11-05T02:42:09.595Z,8.51
2022-11-05T02:43:41.200Z,9.11
2022-11-05T02:45:28.858Z,9.45
2022-11-05T02:47:08.325Z,8.51
2022-11-05T02:48:45.652Z,9.12
2022-11-05T02:51:41.991Z,8.46
2022-11-05T02:53:21.965Z,9.04
2022-11-05T02:56:10.551Z,10.39
2022-11-05T02:57:36.944Z,9.23
2022-11-05T02:58:58.268Z,9.40
2022-11-05T03:00:41.697Z,8.88
2022-11-05T03:02:03.264Z,7.20
2022-11-05T03:03:34.374Z,8.92
2022-11-05T03:04:55.994Z,9.86
2022-11-05T03:06:46.847Z,8.64
2022-11-05T03:08:11.800Z,8.47
2022-11-05T03:09:45.782Z,8.72
2022-11-05T03:12:45.013Z,9.09
2022-11-05T03:14:15.795Z,8.88
2022-11-05T03:15:49.877Z,8.41
2022-11-05T03:17:45.334Z,8.56
2022-11-05T03:19:19.019Z,8.62
2022-11-05T03:20:49.618Z,9.03
2022-11-05T03:22:13.132Z,8.74
2022-11-05T03:25:12.314Z,8.23
2022-11-05T03:27:58.131Z,10.12
2022-11-05T03:29:24.864Z,9.39
2022-11-05T03:30:46.061Z,8.89
2022-11-05T03:32:07.378Z,9.14
2022-11-05T03:33:30.276Z,9.52
2022-11-05T03:34:55.065Z,9.05
2022-11-05T03:37:35.526Z,9.13
2022-11-05T03:38:56.895Z,9.05
2022-11-05T03:40:19.279Z,9.12
2022-11-05T03:41:41.172Z,8.58
2022-11-05T03:43:04.856Z,8.22
2022-11-05T03:44:29.281Z,9.11
2022-11-05T03:45:54.424Z,9.53
2022-11-05T03:47:19.052Z,9.51
2022-11-05T03:48:43.876Z,8.90
2022-11-05T03:51:40.295Z,9.84
2022-11-05T03:53:04.179Z,9.36
2022-11-05T03:54:25.626Z,9.28
2022-11-05T03:56:02.442Z,8.99
2022-11-05T03:58:35.780Z,9.70
2022-11-05T03:59:57.534Z,9.08
2022-11-05T04:01:19.080Z,9.71
2022-11-05T04:02:40.897Z,9.19
2022-11-05T04:04:03.378Z,9.21
2022-11-05T04:05:24.671Z,9.56
2022-11-05T04:06:45.629Z,9.33
2022-11-05T04:08:10.037Z,9.26
2022-11-05T04:09:29.471Z,8.67
2022-11-05T04:10:50.465Z,9.08
2022-11-05T04:12:11.746Z,9.15
2022-11-05T04:13:33.273Z,9.50
2022-11-05T04:14:54.462Z,9.22
2022-11-05T04:16:15.566Z,8.99
2022-11-05T04:17:36.564Z,9.70
2022-11-05T04:18:57.544Z,9.19
2022-11-05T04:20:19.171Z,8.84
2022-11-05T04:21:40.449Z,8.42
2022-11-05T04:23:03.723Z,8.74
2022-11-05T04:25:45.822Z,8.48
2022-11-05T04:27:07.293Z,8.56
2022-11-05T04:28:28.246Z,8.88
2022-11-05T04:29:56.249Z,8.24
2022-11-05T04:31:17.529Z,8.10
2022-11-05T04:33:04.026Z,8.76
2022-11-05T04:34:25.026Z,8.11
2022-11-05T04:35:54.295Z,8.59
2022-11-05T04:37:15.222Z,8.69
2022-11-05T04:38:36.188Z,8.68
2022-11-05T04:39:57.716Z,8.37
2022-11-05T04:41:25.690Z,8.66
2022-11-05T04:42:46.682Z,9.13
2022-11-05T04:44:08.190Z,9.02
2022-11-05T04:45:31.970Z,8.71
2022-11-05T04:46:59.804Z,9.34
2022-11-05T04:48:27.059Z,8.89
2022-11-05T04:49:48.443Z,8.54
2022-11-05T04:51:09.478Z,9.28
2022-11-05T04:52:37.638Z,9.07
2022-11-05T04:53:59.063Z,8.79
2022-11-05T04:55:20.560Z,9.34
2022-11-05T04:56:41.652Z,8.83
2022-11-05T04:58:09.570Z,8.83
2022-11-05T04:59:37.533Z,9.39
2022-11-05T05:01:05.821Z,9.18
2022-11-05T05:02:27.312Z,10.02
2022-11-05T05:04:01.497Z,9.97
2022-11-05T05:05:22.675Z,9.23
2022-11-05T05:06:44.132Z,10.63
2022-11-05T05:08:05.703Z,10.27
2022-11-05T05:09:32.702Z,10.11
2022-11-05T05:10:54.022Z,11.92
2022-11-05T05:12:15.367Z,10.11
2022-11-05T05:13:36.298Z,9.31
2022-11-05T05:14:57.785Z,9.65
2022-11-05T05:16:21.618Z,9.09
2022-11-05T05:17:43.054Z,10.07
2022-11-05T05:19:04.475Z,10.78
2022-11-05T05:20:25.978Z,10.44
2022-11-05T05:21:47.281Z,9.48
2022-11-05T05:23:09.260Z,11.24
2022-11-05T05:24:31.049Z,7.98
2022-11-05T05:25:52.288Z,10.72
2022-11-05T05:27:13.479Z,10.26
2022-11-05T05:28:35.022Z,10.29
2022-11-05T05:29:56.852Z,12.31
2022-11-05T05:31:18.149Z,11.40
2022-11-05T05:32:40.635Z,10.91
2022-11-05T05:34:01.983Z,8.60
2022-11-05T05:35:23.253Z,9.74
2022-11-05T05:36:45.063Z,10.42
2022-11-05T05:38:06.291Z,14.82
2022-11-05T05:39:27.795Z,11.64
2022-11-05T05:40:49.841Z,11.17
2022-11-05T05:42:12.121Z,10.53
2022-11-05T05:43:33.235Z,11.10
2022-11-05T05:44:54.361Z,10.63
2022-11-05T05:46:17.042Z,10.13
2022-11-05T05:47:38.438Z,10.70
2022-11-05T05:49:00.100Z,11.51
2022-11-05T05:50:21.766Z,8.51
2022-11-05T05:51:42.948Z,12.88
2022-11-05T05:53:04.563Z,11.34
2022-11-05T05:54:31.762Z,11.72
2022-11-05T05:55:49.084Z,11.73
2022-11-05T05:57:10.722Z,10.61
2022-11-05T05:58:34.872Z,11.08
2022-11-05T05:59:56.417Z,10.63
2022-11-05T06:01:19.567Z,11.89
2022-11-05T06:02:41.368Z,16.37
2022-11-05T06:04:02.790Z,13.27
2022-11-05T06:05:24.443Z,11.77
2022-11-05T06:06:45.964Z,13.66
2022-11-05T06:08:07.217Z,14.16
2022-11-05T06:09:28.476Z,13.12
2022-11-05T06:10:51.616Z,11.40
2022-11-05T06:12:13.108Z,13.07
2022-11-05T06:13:35.018Z,10.87
2022-11-05T06:14:56.301Z,10.26
2022-11-05T06:16:17.810Z,9.66
2022-11-05T06:17:43.017Z,10.09
2022-11-05T06:19:05.337Z,10.13
2022-11-05T06:20:28.608Z,10.59
2022-11-05T06:21:50.028Z,9.64
2022-11-05T06:23:12.092Z,9.97
2022-11-05T06:24:33.774Z,9.60
2022-11-05T06:25:54.881Z,10.02
2022-11-05T06:27:16.574Z,9.54
2022-11-05T06:28:38.160Z,9.34
2022-11-05T06:29:59.584Z,9.48
2022-11-05T06:31:20.639Z,9.51
2022-11-05T06:32:42.252Z,8.94
2022-11-05T06:34:03.773Z,9.23
2022-11-05T06:35:25.075Z,9.36
2022-11-05T06:36:46.198Z,9.93
2022-11-05T06:38:07.549Z,9.78
2022-11-05T06:39:29.325Z,9.38
2022-11-05T06:40:50.465Z,9.79
2022-11-05T06:42:18.372Z,10.37
2022-11-05T06:44:56.941Z,9.37
2022-11-05T06:46:20.437Z,9.89
2022-11-05T06:47:41.577Z,8.73
2022-11-05T06:49:03.164Z,9.62
2022-11-05T06:50:25.073Z,9.63
2022-11-05T06:51:47.873Z,10.19
2022-11-05T06:53:09.507Z,10.81
2022-11-05T06:54:31.170Z,10.24
2022-11-05T06:55:55.232Z,10.24
2022-11-05T06:57:17.992Z,10.02
2022-11-05T06:58:39.294Z,10.38
2022-11-05T07:00:07.633Z,10.79
2022-11-05T07:01:27.288Z,11.23
2022-11-05T07:02:48.509Z,11.71
2022-11-05T07:04:11.522Z,11.02
2022-11-05T07:05:33.271Z,10.30
2022-11-05T07:06:55.624Z,11.22
2022-11-05T07:08:17.252Z,9.89
2022-11-05T07:09:38.342Z,10.76
2022-11-05T07:11:00.006Z,11.11
2022-11-05T07:12:21.420Z,12.01
2022-11-05T07:13:43.019Z,12.23
2022-11-05T07:15:05.978Z,10.24
2022-11-05T07:16:27.866Z,11.69
2022-11-05T07:17:49.248Z,12.42
2022-11-05T07:19:11.062Z,13.31
2022-11-05T07:20:34.425Z,13.21
2022-11-05T07:21:55.784Z,13.47
2022-11-05T07:23:17.326Z,12.78
2022-11-05T07:24:38.369Z,12.74
2022-11-05T07:25:59.725Z,13.58
2022-11-05T07:27:20.846Z,13.10
2022-11-05T07:28:41.946Z,11.04
2022-11-05T07:31:18.316Z,11.33
2022-11-05T07:33:37.137Z,11.65
2022-11-05T07:34:58.735Z,11.64
2022-11-05T07:36:19.782Z,11.28
2022-11-05T07:37:44.889Z,13.05
2022-11-05T07:39:06.314Z,12.20
2022-11-05T07:40:28.282Z,13.01
2022-11-05T07:41:51.472Z,12.46
2022-11-05T07:43:13.402Z,12.26
2022-11-05T07:44:34.727Z,11.74
2022-11-05T07:45:56.137Z,11.43
2022-11-05T07:47:17.102Z,12.37
2022-11-05T07:48:38.500Z,11.67
2022-11-05T07:49:59.833Z,12.27
2022-11-05T07:51:21.329Z,11.67
2022-11-05T07:52:42.894Z,13.23
2022-11-05T07:54:04.188Z,11.96
2022-11-05T07:55:25.651Z,11.69
2022-11-05T07:56:47.205Z,10.71
2022-11-05T07:58:09.110Z,11.49
2022-11-05T07:59:30.629Z,12.38
2022-11-05T08:00:52.117Z,11.65
2022-11-05T08:02:13.938Z,11.29
2022-11-05T08:03:37.547Z,12.16
2022-11-05T08:04:58.615Z,12.11
2022-11-05T08:06:20.778Z,12.43
2022-11-05T08:07:42.358Z,12.68
2022-11-05T08:09:04.181Z,12.78
2022-11-05T08:10:27.012Z,15.22
2022-11-05T08:11:49.577Z,13.25
2022-11-05T08:13:12.274Z,13.74
2022-11-05T08:14:33.644Z,14.00
2022-11-05T08:15:58.502Z,13.72
2022-11-05T08:17:19.974Z,13.89
2022-11-05T08:18:41.381Z,15.85
2022-11-05T08:20:04.859Z,13.03
2022-11-05T08:21:28.290Z,19.14
2022-11-05T08:24:10.264Z,14.11
2022-11-05T08:25:31.388Z,14.74
2022-11-05T08:26:52.892Z,14.37
2022-11-05T08:28:14.809Z,15.06
2022-11-05T08:29:36.290Z,12.76
2022-11-05T08:30:57.978Z,13.42
2022-11-05T08:32:19.201Z,13.51
2022-11-05T08:33:41.581Z,12.50
2022-11-05T08:35:03.607Z,10.14
2022-11-05T08:36:24.902Z,13.35
2022-11-05T08:37:46.198Z,13.17
2022-11-05T08:39:08.404Z,12.43
2022-11-05T08:40:31.420Z,13.07
2022-11-05T08:41:52.932Z,12.43
2022-11-05T08:43:14.581Z,11.63
2022-11-05T08:44:35.943Z,12.43
2022-11-05T08:45:59.764Z,13.38
2022-11-05T08:47:20.702Z,12.57
2022-11-05T08:48:42.009Z,12.11
2022-11-05T08:50:06.146Z,12.03
2022-11-05T08:51:27.181Z,12.02
2022-11-05T08:52:48.226Z,11.34
2022-11-05T08:54:10.349Z,11.68
2022-11-05T08:55:31.864Z,11.12
2022-11-05T08:56:53.419Z,12.72
2022-11-05T08:58:15.398Z,11.83
2022-11-05T08:59:37.558Z,12.54
2022-11-05T09:01:04.474Z,10.83
2022-11-05T09:02:22.119Z,11.79
2022-11-05T09:03:43.720Z,10.44
2022-11-05T09:05:06.253Z,10.84
2022-11-05T09:06:27.671Z,10.84
2022-11-05T09:07:48.911Z,10.81
2022-11-05T09:09:12.197Z,10.19
2022-11-05T09:10:34.131Z,10.61
2022-11-05T09:12:11.607Z,10.73
2022-11-05T09:13:20.097Z,11.36
2022-11-05T09:16:02.500Z,10.03
2022-11-05T09:17:23.851Z,10.80
2022-11-05T09:18:45.892Z,10.68
2022-11-05T09:20:08.374Z,10.37
2022-11-05T09:21:30.326Z,10.73
2022-11-05T09:22:52.253Z,11.00
2022-11-05T09:24:13.320Z,11.61
2022-11-05T09:25:35.264Z,10.56
2022-11-05T09:26:56.234Z,11.03
2022-11-05T09:28:19.458Z,11.38
2022-11-05T09:29:41.588Z,10.83
2022-11-05T09:31:07.295Z,10.63
2022-11-05T09:32:30.385Z,11.17
2022-11-05T09:33:51.759Z,11.34
2022-11-05T09:35:12.769Z,10.66
2022-11-05T09:36:33.798Z,10.44
2022-11-05T09:38:00.773Z,11.13
2022-11-05T09:39:19.810Z,22.04
2022-11-05T09:41:05.213Z,23.93
2022-11-05T09:42:33.115Z,15.58
2022-11-05T09:44:15.157Z,13.86
2022-11-05T09:45:36.132Z,12.12
2022-11-05T09:46:59.665Z,11.17
2022-11-05T09:48:22.679Z,11.67
2022-11-05T09:51:06.114Z,9.94
2022-11-05T09:52:28.871Z,10.18
2022-11-05T09:53:50.215Z,11.30
2022-11-05T09:55:29.826Z,10.14
2022-11-05T09:56:52.258Z,10.43
2022-11-05T09:59:46.605Z,10.16
2022-11-05T10:02:27.868Z,9.18
2022-11-05T10:03:51.076Z,10.28
2022-11-05T10:05:12.501Z,10.08
2022-11-05T10:06:33.863Z,10.19
2022-11-05T10:08:00.895Z,11.55
2022-11-05T10:09:40.112Z,10.65
2022-11-05T10:11:03.101Z,10.67
2022-11-05T10:12:42.952Z,9.62
2022-11-05T10:14:18.521Z,10.00
2022-11-05T10:15:43.354Z,9.63
2022-11-05T10:18:37.824Z,10.51
2022-11-05T10:20:16.668Z,8.02
2022-11-05T10:22:05.105Z,10.21
2022-11-05T10:24:22.547Z,20.14
2022-11-05T10:26:10.277Z,18.18
2022-11-05T10:27:36.108Z,16.63
2022-11-05T10:28:57.605Z,13.90
2022-11-05T10:30:32.561Z,12.21
2022-11-05T10:31:53.821Z,19.01
2022-11-05T10:33:18.022Z,11.73
2022-11-05T10:34:40.572Z,11.97
2022-11-05T10:37:25.727Z,10.49
2022-11-05T10:38:47.513Z,10.56
2022-11-05T10:40:39.975Z,10.35
2022-11-05T10:43:46.499Z,11.12
2022-11-05T10:45:19.666Z,10.11
2022-11-05T10:46:57.229Z,9.78
2022-11-05T10:48:43.829Z,11.27
2022-11-05T10:50:12.368Z,11.26
2022-11-05T10:51:38.015Z,10.81
2022-11-05T10:53:02.726Z,9.83
2022-11-05T10:54:28.619Z,9.97
2022-11-05T10:55:56.851Z,10.15
2022-11-05T10:57:39.656Z,10.49
2022-11-05T10:59:12.026Z,10.61
2022-11-05T11:00:46.663Z,10.48
2022-11-05T11:03:47.708Z,11.79
2022-11-05T11:05:14.521Z,12.32
2022-11-05T11:06:37.652Z,12.56
2022-11-05T11:08:21.847Z,19.81
2022-11-05T11:09:52.179Z,22.85
2022-11-05T11:11:31.264Z,16.24
2022-11-05T11:12:55.618Z,17.89
2022-11-05T11:14:23.716Z,23.83
2022-11-05T11:15:45.487Z,13.94
2022-11-05T11:18:57.916Z,13.34
2022-11-05T11:20:32.233Z,13.06
2022-11-05T11:27:39.857Z,12.21
2022-11-05T11:29:32.237Z,9.87
2022-11-05T11:35:46.014Z,10.19
2022-11-05T11:37:19.667Z,9.78
2022-11-05T11:38:41.384Z,10.59
2022-11-05T11:41:37.119Z,13.14
2022-11-05T11:43:00.075Z,17.64
2022-11-05T11:44:26.214Z,11.26
2022-11-05T11:45:49.278Z,11.21
2022-11-05T11:47:16.266Z,12.21
2022-11-05T11:48:39.434Z,12.92
2022-11-05T11:50:00.995Z,13.14
2022-11-05T11:51:31.785Z,15.27
2022-11-05T11:52:53.638Z,12.51
2022-11-05T11:54:19.252Z,11.33
2022-11-05T11:55:59.202Z,11.64
2022-11-05T11:57:22.351Z,11.23
2022-11-05T11:58:48.069Z,10.67
2022-11-05T12:00:10.215Z,11.26
2022-11-05T12:02:05.894Z,10.88
2022-11-05T12:03:35.146Z,10.93
2022-11-05T12:05:15.769Z,10.88
2022-11-05T12:06:49.563Z,10.34
2022-11-05T12:08:24.610Z,10.82
2022-11-05T12:10:05.867Z,11.58
2022-11-05T12:11:31.246Z,11.64
2022-11-05T12:13:11.729Z,12.80
2022-11-05T12:14:56.103Z,12.57
2022-11-05T12:17:51.979Z,11.84
2022-11-05T12:19:25.955Z,12.30
2022-11-05T12:21:00.032Z,11.28
2022-11-05T12:22:44.228Z,11.59
2022-11-05T12:24:38.712Z,10.86
2022-11-05T12:27:44.956Z,10.24
2022-11-05T12:29:36.265Z,11.07
2022-11-05T12:31:33.842Z,9.76
2022-11-05T12:33:24.010Z,10.29
2022-11-05T12:35:07.930Z,9.58
2022-11-05T12:36:46.052Z,10.09
2022-11-05T12:38:17.235Z,10.11
2022-11-05T12:39:48.485Z,10.29
2022-11-05T12:41:19.202Z,9.76
2022-11-05T12:42:47.281Z,10.46
2022-11-05T12:44:22.041Z,10.09
2022-11-05T12:46:07.068Z,10.58
2022-11-05T12:47:43.887Z,13.09
2022-11-05T12:49:17.990Z,10.78
2022-11-05T12:50:43.410Z,11.82
2022-11-05T12:52:08.747Z,12.44
2022-11-05T12:53:45.103Z,14.59
2022-11-05T12:55:10.462Z,14.37
2022-11-05T12:56:46.823Z,12.93
2022-11-05T12:58:17.970Z,11.64
2022-11-05T13:00:03.797Z,12.04
2022-11-05T13:02:54.027Z,13.49
2022-11-05T13:05:41.275Z,14.22
2022-11-05T13:07:06.061Z,12.87
2022-11-05T13:08:43.453Z,12.46
2022-11-05T13:10:27.019Z,11.74
2022-11-05T13:11:54.339Z,11.28
2022-11-05T13:13:25.517Z,12.20
2022-11-05T13:15:04.612Z,11.72
2022-11-05T13:16:47.296Z,13.53
2022-11-05T13:18:14.869Z,14.96
2022-11-05T13:19:43.011Z,14.27
2022-11-05T13:21:07.042Z,14.82
2022-11-05T13:23:01.593Z,14.54
2022-11-05T13:26:24.836Z,13.84
2022-11-05T13:28:06.485Z,13.72
2022-11-05T13:30:54.724Z,12.95
2022-11-05T13:32:32.013Z,14.38
2022-11-05T13:33:54.315Z,15.09
2022-11-05T13:35:27.262Z,14.51
2022-11-05T13:36:59.717Z,12.70
2022-11-05T13:38:23.542Z,14.09
2022-11-05T13:39:55.803Z,12.98
2022-11-05T13:41:48.988Z,11.47
2022-11-05T13:43:40.185Z,12.41
2022-11-05T13:47:10.302Z,10.58
2022-11-05T13:48:35.184Z,12.29
2022-11-05T13:50:19.678Z,16.59
2022-11-05T13:51:47.427Z,15.48
2022-11-05T13:53:24.671Z,14.23
2022-11-05T13:54:58.677Z,14.09
2022-11-05T13:56:26.676Z,14.86
2022-11-05T13:58:24.814Z,14.92
2022-11-05T14:00:05.335Z,14.08
2022-11-05T14:01:36.582Z,13.56
2022-11-05T14:03:02.872Z,13.59
2022-11-05T14:04:30.192Z,13.52
2022-11-05T14:05:55.267Z,12.92
2022-11-05T14:07:21.985Z,13.13
2022-11-05T14:08:44.622Z,13.45
2022-11-05T14:11:35.429Z,13.08
2022-11-05T14:12:57.483Z,15.24
2022-11-05T14:14:20.956Z,15.66
2022-11-05T14:16:04.149Z,14.54
2022-11-05T14:17:45.525Z,14.31
2022-11-05T14:31:54.463Z,12.51
2022-11-05T14:37:32.601Z,10.70
2022-11-05T14:39:00.051Z,14.50
2022-11-05T14:40:39.680Z,15.33
2022-11-05T14:42:07.324Z,13.94
2022-11-05T14:43:33.457Z,15.01
2022-11-05T14:46:13.617Z,12.00
2022-11-05T14:48:52.752Z,15.37
2022-11-05T14:50:39.246Z,14.62
2022-11-05T14:52:06.134Z,14.51
2022-11-05T14:53:35.909Z,14.64
2022-11-05T14:54:56.913Z,14.48
2022-11-05T14:56:18.026Z,14.53
2022-11-05T14:57:55.230Z,14.76
2022-11-05T14:59:28.777Z,13.66
2022-11-05T15:00:49.887Z,14.98
2022-11-05T15:02:14.006Z,15.53
2022-11-05T15:03:46.264Z,14.21
2022-11-05T15:07:04.003Z,14.37
2022-11-05T15:08:39.739Z,13.78
2022-11-05T15:10:10.824Z,20.21
2022-11-05T15:12:58.356Z,18.68
2022-11-05T15:14:34.033Z,15.87
2022-11-05T15:15:56.508Z,15.09
2022-11-05T15:17:22.847Z,14.17
2022-11-05T15:18:45.152Z,14.76
2022-11-05T15:20:17.937Z,15.42
2022-11-05T15:21:41.138Z,11.47
2022-11-05T15:23:03.675Z,13.90
2022-11-05T15:24:25.417Z,13.69
2022-11-05T15:25:56.186Z,14.48
2022-11-05T15:27:36.795Z,15.63
2022-11-05T15:28:57.737Z,14.82
2022-11-05T15:30:21.710Z,13.59
2022-11-05T15:31:45.604Z,14.71
2022-11-05T15:33:08.354Z,15.07
2022-11-05T15:34:31.503Z,15.69
2022-11-05T15:35:52.711Z,14.61
2022-11-05T15:37:17.690Z,15.37
2022-11-05T15:38:39.987Z,15.67
2022-11-05T15:40:03.839Z,15.25
2022-11-05T15:41:29.869Z,18.08
2022-11-05T15:43:10.239Z,15.42
2022-11-05T15:44:33.709Z,16.49
2022-11-05T15:47:24.641Z,15.16
2022-11-05T15:50:03.258Z,16.13
2022-11-05T15:51:25.436Z,17.04
2022-11-05T15:52:49.718Z,15.45
2022-11-05T15:55:26.483Z,15.79
2022-11-05T15:56:50.520Z,17.16
2022-11-05T15:58:12.025Z,16.48
2022-11-05T15:59:33.234Z,17.54
2022-11-05T16:00:54.569Z,16.21
2022-11-05T16:03:34.431Z,17.22
2022-11-05T16:04:56.401Z,23.76
2022-11-05T16:06:18.576Z,17.07
2022-11-05T16:07:44.444Z,29.05
2022-11-05T16:09:05.488Z,42.08
2022-11-05T16:10:33.386Z,23.91
2022-11-05T16:12:16.471Z,17.72
2022-11-05T16:13:39.519Z,16.79
2022-11-05T16:15:13.314Z,16.73
2022-11-05T16:16:34.726Z,15.39
2022-11-05T16:19:40.361Z,16.18
2022-11-05T16:22:16.629Z,16.96
2022-11-05T16:25:24.238Z,20.04
2022-11-05T16:27:57.604Z,16.73
2022-11-05T16:29:34.319Z,15.21
2022-11-05T16:31:03.073Z,15.36
2022-11-05T16:32:30.291Z,17.23
2022-11-05T16:33:49.385Z,15.88
2022-11-05T16:36:48.987Z,14.11
2022-11-05T16:38:11.723Z,14.01
2022-11-05T16:40:54.517Z,14.43
2022-11-05T16:42:38.392Z,15.42
2022-11-05T16:44:01.344Z,21.10
2022-11-05T16:45:23.711Z,15.11
2022-11-05T16:46:46.982Z,15.97
2022-11-05T16:48:11.174Z,19.54
2022-11-05T16:49:32.682Z,28.81
2022-11-05T16:50:54.160Z,15.96
2022-11-05T16:52:17.606Z,25.13
2022-11-05T16:53:38.816Z,23.63
2022-11-05T16:55:00.393Z,15.10
2022-11-05T16:56:22.560Z,16.06
2022-11-05T16:57:46.352Z,14.36
2022-11-05T16:59:10.504Z,20.04
2022-11-05T17:00:32.142Z,15.39
2022-11-05T17:01:55.973Z,27.32
2022-11-05T17:03:17.130Z,17.45
2022-11-05T17:04:38.358Z,13.50
2022-11-05T17:05:59.374Z,17.41
2022-11-05T17:07:20.955Z,18.64
2022-11-05T17:08:42.207Z,18.91
2022-11-05T17:10:03.988Z,15.56
2022-11-05T17:11:25.489Z,10.98
2022-11-05T17:12:46.734Z,17.82
2022-11-05T17:14:13.996Z,13.02
2022-11-05T17:15:35.384Z,15.73
2022-11-05T17:16:59.316Z,14.98
2022-11-05T17:18:21.214Z,13.66
2022-11-05T17:19:42.870Z,9.63
2022-11-05T17:21:06.749Z,11.86
2022-11-05T17:22:28.149Z,12.68
2022-11-05T17:35:32.790Z,11.11
2022-11-05T17:38:03.787Z,12.13
2022-11-05T17:39:31.206Z,10.62
2022-11-05T17:40:48.788Z,10.16
2022-11-05T17:42:09.952Z,10.37
2022-11-05T17:43:31.511Z,10.40
2022-11-05T17:44:54.492Z,11.29
2022-11-05T17:46:15.898Z,15.69
2022-11-05T17:47:38.717Z,10.82
2022-11-05T17:49:00.265Z,11.36
2022-11-05T17:50:22.080Z,11.34
2022-11-05T17:51:43.357Z,11.02
2022-11-05T17:53:04.653Z,10.68
2022-11-05T17:54:26.283Z,10.63
2022-11-05T17:55:47.990Z,10.70
2022-11-05T17:57:09.534Z,11.24
2022-11-05T17:58:32.886Z,11.44
2022-11-05T17:59:54.156Z,10.40
2022-11-05T18:02:43.426Z,11.70
2022-11-05T18:04:09.058Z,11.63
2022-11-05T18:05:30.189Z,11.27
2022-11-05T18:06:51.760Z,10.35
2022-11-05T18:08:13.092Z,11.43
2022-11-05T18:09:34.148Z,10.66
2022-11-05T18:10:57.963Z,10.90
2022-11-05T18:12:19.296Z,10.49
2022-11-05T18:13:40.542Z,12.09
2022-11-05T18:15:03.977Z,11.31
2022-11-05T18:16:27.093Z,12.01
2022-11-05T18:17:48.324Z,11.42
2022-11-05T18:19:10.907Z,9.94
2022-11-05T18:20:32.530Z,11.27
2022-11-05T18:21:54.668Z,9.69
2022-11-05T18:23:16.092Z,10.70
2022-11-05T18:24:37.529Z,10.87
2022-11-05T18:25:59.012Z,10.47
2022-11-05T18:27:20.174Z,10.04
2022-11-05T18:28:43.858Z,11.37
2022-11-05T18:30:08.411Z,10.38
2022-11-05T18:31:29.680Z,10.77
2022-11-05T18:32:51.165Z,10.57
2022-11-05T18:34:13.445Z,10.13
2022-11-05T18:35:39.899Z,10.78
2022-11-05T18:37:02.962Z,10.87
2022-11-05T18:38:24.415Z,10.87
2022-11-05T18:39:47.986Z,10.34
2022-11-05T18:41:09.675Z,12.24
2022-11-05T18:42:31.970Z,10.54
2022-11-05T18:45:15.581Z,11.83
2022-11-05T18:46:57.105Z,10.84
2022-11-05T18:48:01.087Z,10.29
2022-11-05T18:49:22.599Z,10.96
2022-11-05T18:50:44.269Z,10.80
2022-11-05T18:52:05.672Z,10.77
2022-11-05T18:53:28.756Z,10.57
2022-11-05T18:54:50.786Z,10.38
2022-11-05T18:56:14.137Z,10.26
2022-11-05T18:57:38.569Z,11.09
2022-11-05T18:59:30.096Z,10.12
2022-11-05T19:01:44.097Z,10.09
2022-11-05T19:03:07.325Z,9.80
2022-11-05T19:04:28.871Z,10.32
2022-11-05T19:05:50.198Z,9.89
2022-11-05T19:07:11.564Z,9.68
2022-11-05T19:08:33.055Z,9.32
2022-11-05T19:09:54.945Z,9.82
2022-11-05T19:12:29.293Z,9.69
2022-11-05T19:13:51.173Z,10.03
2022-11-05T19:15:12.923Z,9.63
2022-11-05T19:16:34.653Z,9.88
2022-11-05T19:17:55.759Z,9.87
2022-11-05T19:19:16.879Z,9.66
2022-11-05T19:20:38.204Z,9.29
2022-11-05T19:22:01.248Z,9.83
2022-11-05T19:23:22.598Z,10.46
2022-11-05T19:24:43.704Z,9.42
2022-11-05T19:26:06.258Z,9.28
2022-11-05T19:27:27.672Z,7.69
2022-11-05T19:28:49.012Z,9.44
2022-11-05T19:30:11.074Z,10.29
2022-11-05T19:31:32.656Z,9.12
2022-11-05T19:32:54.455Z,9.91
2022-11-05T19:34:15.523Z,9.70
2022-11-05T19:35:41.645Z,9.16
2022-11-05T19:37:02.969Z,9.22
2022-11-05T19:38:25.030Z,9.25
2022-11-05T19:39:45.986Z,9.85
2022-11-05T19:41:09.478Z,9.46
2022-11-05T19:42:30.521Z,10.12
2022-11-05T19:43:55.728Z,10.25
2022-11-05T19:45:42.889Z,10.82
2022-11-05T19:46:40.813Z,10.07
2022-11-05T19:48:03.377Z,10.10
2022-11-05T19:49:24.575Z,6.88
2022-11-05T19:50:46.119Z,9.83
2022-11-05T19:52:07.263Z,9.14
2022-11-05T19:53:29.897Z,9.39
2022-11-05T19:54:53.459Z,8.78
2022-11-05T19:56:17.896Z,8.95
2022-11-05T19:57:40.723Z,8.46
2022-11-05T19:59:02.605Z,8.68
2022-11-05T20:00:24.194Z,8.25
2022-11-05T20:01:45.757Z,8.78
2022-11-05T20:03:07.348Z,9.42
2022-11-05T20:04:28.858Z,9.74
2022-11-05T20:05:50.737Z,9.70
2022-11-05T20:07:12.305Z,10.32
2022-11-05T20:08:43.293Z,10.37
2022-11-05T20:09:56.813Z,8.76
2022-11-05T20:11:17.825Z,8.54
2022-11-05T20:12:39.013Z,8.24
2022-11-05T20:14:02.811Z,8.48
2022-11-05T20:15:23.875Z,8.60
2022-11-05T20:16:45.311Z,8.46
2022-11-05T20:18:07.008Z,8.02
2022-11-05T20:19:28.646Z,8.31
2022-11-05T20:21:07.283Z,7.11
2022-11-05T20:22:28.629Z,7.26
2022-11-05T20:23:49.888Z,7.77
2022-11-05T20:25:13.195Z,7.19
2022-11-05T20:26:34.558Z,8.22
2022-11-05T20:27:56.267Z,7.61
2022-11-05T20:29:17.346Z,8.13
2022-11-05T20:30:38.782Z,8.38
2022-11-05T20:32:00.086Z,8.83
2022-11-05T20:33:21.484Z,8.32
2022-11-05T20:34:42.676Z,7.87
2022-11-05T20:36:07.912Z,7.76